Airfield :
LOGIN :

Register | Disclaimer

   EN    FR    IT 

 










Legend :    VFR   Marginal VFR   IFR   Intensive IFR   Very Intensive IFR
Visi :
Ceiling :
>= 8 km
>= 3000ft
5 to 8 km
1000 to 3000 ft
1500m to 5 km
500 to 1000 ft
800 to 1500m
200 to 500 ft
< 800m
< 200 ft
Symbols :   Thunderstorms  Fog  Heavy snow  Heavy precipitations  Wind > 20 kt
SIGMETs :     Misc.  Thunderstorms  Icing  Turbulence  Mountain Waves  Volcanic Ashes






- Airport Elevation : 1 ft


EGCK - Caernarfon

CURRENT METAR :
  • 232350Z AUTO VRB01KT 9999 OVC004/// 06/06 Q1027

EXPIRED METARs :
  • 232320Z AUTO VRB01KT 6000 OVC004/// 06/06 Q1027
  • 232250Z AUTO 16004KT 100V190 6000 OVC003/// 06/06 Q1027
  • 232220Z AUTO VRB03KT 4100 BR OVC002/// 06/06 Q1027
  • 232150Z AUTO VRB03KT 4600 BR OVC002/// 06/06 Q1028 RERA REDZ
  • 232120Z AUTO VRB02KT 1700 -DZ OVC002/// 06/06 Q1028 RERA

TAF TAF EGCK
Valid from the 24 at 00:00 until the 24 at 09:00 UTC


232300Z 2400/2409 22004KT 6000 SCT002 BKN005
TEMPO 2400/2409 3000 BR BKN002
PROB30
TEMPO 2400/2409 0300 FG BKN001



MET'MAP, your aeronautical weather chart ! - Copyright ORBIFLY December 2007 - Disclaimer

ORBIFLY MET'MAP TEAM :

Programming & Development : Alexandra Zaïnal
Concept & original design : Baudouin d'Aumeries
Assistance for programming : Marc-Olivier Méhu
Technical & hardware support : Manuel Goepfert

Contact : metmap@orbifly.com




SOURCES & CREDITS :

   NOAA